createdAt,value
2022-11-21T00:03:52.144Z,99072.33
2022-11-21T00:08:59.665Z,99061.46
2022-11-21T00:14:07.065Z,99053.70
2022-11-21T00:19:14.424Z,99050.09
2022-11-21T00:24:22.145Z,99046.48
2022-11-21T00:29:30.144Z,99044.93
2022-11-21T00:34:37.524Z,99047.89
2022-11-21T00:39:45.093Z,99045.11
2022-11-21T00:44:52.506Z,99045.81
2022-11-21T00:49:59.705Z,99043.05
2022-11-21T00:55:08.417Z,99031.66
2022-11-21T01:00:17.944Z,99032.72
2022-11-21T01:05:25.105Z,99035.67
2022-11-21T01:10:32.625Z,99037.94
2022-11-21T01:15:40.194Z,99035.37
2022-11-21T01:20:47.517Z,99047.48
2022-11-21T01:25:55.314Z,99051.30
2022-11-21T01:31:08.914Z,99048.02
2022-11-21T01:36:18.027Z,99042.52
2022-11-21T01:41:28.914Z,99041.83
2022-11-21T01:46:36.074Z,99046.67
2022-11-21T01:51:46.604Z,99047.57
2022-11-21T01:57:00.958Z,99051.90
2022-11-21T02:02:11.123Z,99058.13
2022-11-21T02:07:21.733Z,99062.48
2022-11-21T02:12:34.148Z,99059.41
2022-11-21T02:17:40.130Z,99052.20
2022-11-21T02:22:53.464Z,99042.94
2022-11-21T02:28:03.863Z,99044.70
2022-11-21T02:33:12.544Z,99045.77
2022-11-21T02:38:24.484Z,99046.48
2022-11-21T02:43:35.303Z,99047.05
2022-11-21T02:48:42.691Z,99049.83
2022-11-21T02:53:50.092Z,99043.11
2022-11-21T02:58:57.582Z,99043.30
2022-11-21T03:04:04.923Z,99051.06
2022-11-21T03:09:13.199Z,99040.73
2022-11-21T03:14:20.871Z,99043.14
2022-11-21T03:19:28.390Z,99039.52
2022-11-21T03:24:35.784Z,99041.74
2022-11-21T03:29:43.441Z,99043.99
2022-11-21T03:34:50.952Z,99038.48
2022-11-21T03:39:58.334Z,99041.41
2022-11-21T03:45:06.267Z,99040.55
2022-11-21T03:50:19.228Z,99042.98
2022-11-21T03:55:27.001Z,99048.31
2022-11-21T04:00:34.659Z,99056.94
2022-11-21T04:05:42.266Z,99060.04
2022-11-21T04:10:53.125Z,99064.86
2022-11-21T04:16:01.731Z,99074.33
2022-11-21T04:21:10.555Z,99068.81
2022-11-21T04:26:17.948Z,99066.23
2022-11-21T04:31:25.314Z,99065.17
2022-11-21T04:36:32.897Z,99071.21
2022-11-21T04:41:40.573Z,99060.88
2022-11-21T04:46:47.876Z,99057.08
2022-11-21T04:51:55.506Z,99047.92
2022-11-21T04:57:03.234Z,99053.43
2022-11-21T05:02:11.708Z,99047.58
2022-11-21T05:07:19.684Z,99053.11
2022-11-21T05:12:44.675Z,99060.88
2022-11-21T05:17:52.414Z,99076.56
2022-11-21T05:23:00.026Z,99075.35
2022-11-21T05:28:07.714Z,99063.45
2022-11-21T05:33:15.138Z,99059.66
2022-11-21T05:38:22.593Z,99060.88
2022-11-21T05:43:49.594Z,99056.22
2022-11-21T05:48:58.067Z,99051.38
2022-11-21T05:54:06.196Z,99053.10
2022-11-21T05:59:14.677Z,99057.59
2022-11-21T06:04:22.616Z,99057.05
2022-11-21T06:09:31.674Z,99067.75
2022-11-21T06:14:39.074Z,99067.42
2022-11-21T06:19:46.856Z,99071.20
2022-11-21T06:24:54.067Z,99072.77
2022-11-21T06:30:01.290Z,99071.05
2022-11-21T06:35:09.835Z,99069.67
2022-11-21T06:40:17.995Z,99071.23
2022-11-21T06:45:26.555Z,99069.70
2022-11-21T06:50:33.908Z,99066.42
2022-11-21T06:55:41.198Z,99062.13
2022-11-21T07:00:49.273Z,99071.42
2022-11-21T07:06:00.286Z,99073.49
2022-11-21T07:11:24.575Z,99073.66
2022-11-21T07:16:32.955Z,99066.27
2022-11-21T07:21:40.715Z,99070.92
2022-11-21T07:26:48.008Z,99071.95
2022-11-21T07:31:56.186Z,99058.33
2022-11-21T07:37:05.369Z,99075.04
2022-11-21T07:42:12.876Z,99076.42
2022-11-21T07:47:22.323Z,99080.55
2022-11-21T07:52:30.797Z,99071.91
2022-11-21T07:57:38.316Z,99074.16
2022-11-21T08:02:45.795Z,99079.32
2022-11-21T08:07:53.756Z,99088.97
2022-11-21T08:13:01.116Z,99085.52
2022-11-21T08:18:14.271Z,99097.90
2022-11-21T08:23:21.916Z,99106.33
2022-11-21T08:28:29.547Z,99104.95
2022-11-21T08:33:37.057Z,99100.44
2022-11-21T08:38:44.557Z,99105.08
2022-11-21T08:43:52.116Z,99099.90
2022-11-21T08:48:59.548Z,99106.76
2022-11-21T08:54:07.508Z,99103.80
2022-11-21T08:59:15.975Z,99101.38
2022-11-21T09:04:23.550Z,99102.70
2022-11-21T09:09:31.097Z,99094.06
2022-11-21T09:14:56.239Z,99099.23
2022-11-21T09:20:03.815Z,99100.77
2022-11-21T09:25:12.397Z,99100.23
2022-11-21T09:30:19.689Z,99098.33
2022-11-21T09:35:27.116Z,99095.20
2022-11-21T09:40:35.391Z,99079.81
2022-11-21T09:45:48.776Z,99081.66
2022-11-21T09:50:59.796Z,99076.95
2022-11-21T09:56:11.377Z,99077.56
2022-11-21T10:01:19.376Z,99070.05
2022-11-21T10:06:30.907Z,99065.65
2022-11-21T10:12:05.948Z,99056.77
2022-11-21T10:17:24.677Z,99060.98
2022-11-21T10:23:05.156Z,99043.63
2022-11-21T10:28:22.674Z,99039.60
2022-11-21T10:33:36.800Z,99032.81
2022-11-21T10:38:46.560Z,99025.87
2022-11-21T10:44:33.510Z,99028.42
2022-11-21T10:49:41.365Z,99027.98
2022-11-21T10:55:17.732Z,99029.65
2022-11-21T11:00:27.322Z,99038.02
2022-11-21T11:05:36.601Z,99034.67
2022-11-21T11:10:45.789Z,99037.90
2022-11-21T11:16:03.880Z,99041.69
2022-11-21T11:21:20.957Z,99046.14
2022-11-21T11:26:31.363Z,99051.82
2022-11-21T11:31:46.238Z,99057.66
2022-11-21T11:37:13.721Z,99056.58
2022-11-21T11:43:04.621Z,99056.05
2022-11-21T11:48:13.094Z,99047.16
2022-11-21T11:53:25.285Z,99043.50
2022-11-21T11:58:33.932Z,99039.69
2022-11-21T12:03:47.088Z,99034.84
2022-11-21T12:08:58.094Z,99032.08
2022-11-21T12:14:13.950Z,99029.29
2022-11-21T12:19:21.639Z,99031.03
2022-11-21T12:24:29.126Z,99029.52
2022-11-21T12:29:51.239Z,99024.70
2022-11-21T12:35:07.817Z,99026.95
2022-11-21T12:40:31.630Z,99026.11
2022-11-21T12:45:41.439Z,99033.41
2022-11-21T12:51:15.629Z,99034.64
2022-11-21T12:56:34.809Z,99035.33
2022-11-21T13:01:52.379Z,99033.77
2022-11-21T13:07:01.701Z,99026.34
2022-11-21T13:12:15.959Z,99024.12
2022-11-21T13:17:44.790Z,99020.14
2022-11-21T13:23:07.053Z,99018.42
2022-11-21T13:28:29.643Z,99012.88
2022-11-21T13:33:55.083Z,99009.95
2022-11-21T13:39:30.538Z,99009.95
2022-11-21T13:44:44.281Z,99010.98
2022-11-21T13:50:01.318Z,99014.08
2022-11-21T13:55:37.280Z,99016.64
2022-11-21T14:01:01.527Z,99020.08
2022-11-21T14:06:38.882Z,99020.23
2022-11-21T14:11:50.392Z,99005.38
2022-11-21T14:17:18.861Z,99000.30
2022-11-21T14:22:43.851Z,98994.06
2022-11-21T14:27:56.605Z,98991.83
2022-11-21T14:33:30.366Z,98985.60
2022-11-21T14:38:43.600Z,98984.21
2022-11-21T14:43:51.386Z,98980.91
2022-11-21T14:48:59.361Z,98973.64
2022-11-21T14:54:07.607Z,98964.13
2022-11-21T14:59:26.653Z,98955.87
2022-11-21T15:04:37.282Z,98949.59
2022-11-21T15:15:28.281Z,98943.14
2022-11-21T15:20:35.838Z,98938.80
2022-11-21T15:25:50.119Z,98942.93
2022-11-21T15:31:21.915Z,98936.18
2022-11-21T15:36:30.479Z,98926.31
2022-11-21T15:41:38.725Z,98928.37
2022-11-21T15:46:47.349Z,98930.11
2022-11-21T15:57:11.049Z,98929.40
2022-11-21T15:57:22.957Z,98928.35
2022-11-21T16:02:30.563Z,98922.83
2022-11-21T16:07:37.905Z,98911.40
2022-11-21T16:12:45.485Z,98909.33
2022-11-21T16:17:52.973Z,98908.27
2022-11-21T16:23:00.787Z,98896.61
2022-11-21T16:28:08.561Z,98909.51
2022-11-21T16:33:16.159Z,98917.63
2022-11-21T16:38:24.314Z,98917.63
2022-11-21T16:43:32.816Z,98913.48
2022-11-21T16:48:40.605Z,98913.31
2022-11-21T16:53:49.456Z,98918.86
2022-11-21T16:58:57.524Z,98928.88
2022-11-21T17:04:05.053Z,98926.10
2022-11-21T17:09:13.063Z,98929.56
2022-11-21T17:14:20.346Z,98929.55
2022-11-21T17:19:27.753Z,98930.21
2022-11-21T17:24:35.178Z,98929.19
2022-11-21T17:29:42.559Z,98930.20
2022-11-21T17:34:50.318Z,98929.36
2022-11-21T17:39:57.749Z,98926.73
2022-11-21T17:45:05.346Z,98926.55
2022-11-21T17:50:13.687Z,98921.89
2022-11-21T17:55:21.366Z,98924.30
2022-11-21T18:00:29.406Z,98926.90
2022-11-21T18:05:36.917Z,98927.61
2022-11-21T18:10:44.438Z,98921.70
2022-11-21T18:15:52.045Z,98922.40
2022-11-21T18:21:06.463Z,98926.20
2022-11-21T18:26:16.365Z,98931.05
2022-11-21T18:31:26.043Z,98928.27
2022-11-21T18:36:34.367Z,98923.06
2022-11-21T18:41:41.725Z,98923.55
2022-11-21T18:46:49.076Z,98919.73
2022-11-21T18:51:57.100Z,98920.94
2022-11-21T18:57:04.972Z,98927.67
2022-11-21T19:02:12.773Z,98929.52
2022-11-21T19:07:20.083Z,98924.16
2022-11-21T19:12:27.411Z,98925.70
2022-11-21T19:17:34.754Z,98925.65
2022-11-21T19:22:42.027Z,98928.38
2022-11-21T19:27:49.349Z,98933.56
2022-11-21T19:32:57.211Z,98929.02
2022-11-21T19:38:04.825Z,98915.62
2022-11-21T19:43:12.493Z,98917.20
2022-11-21T19:48:19.968Z,98918.73
2022-11-21T19:53:29.683Z,98913.20
2022-11-21T19:58:37.168Z,98912.15
2022-11-21T20:03:46.769Z,98917.50
2022-11-21T20:08:55.772Z,98928.38
2022-11-21T20:14:03.241Z,98929.58
2022-11-21T20:19:12.164Z,98928.67
2022-11-21T20:24:19.811Z,98928.15
2022-11-21T20:29:27.217Z,98931.42
2022-11-21T20:34:36.401Z,98936.79
2022-11-21T20:39:43.899Z,98938.16
2022-11-21T20:45:54.243Z,98942.28
2022-11-21T20:50:50.099Z,98950.92
2022-11-21T20:55:47.328Z,98953.15
2022-11-21T21:00:54.809Z,98952.27
2022-11-21T21:06:07.145Z,98954.67
2022-11-21T21:11:36.703Z,98953.29
2022-11-21T21:16:45.092Z,98952.60
2022-11-21T21:21:52.728Z,98952.77
2022-11-21T21:27:00.126Z,98952.77
2022-11-21T21:32:09.045Z,98953.29
2022-11-21T21:37:16.566Z,98955.70
2022-11-21T21:42:24.095Z,98952.25
2022-11-21T21:47:31.605Z,98951.73
2022-11-21T21:52:39.178Z,98955.86
2022-11-21T21:57:52.183Z,98950.65
2022-11-21T22:03:00.168Z,98953.43
2022-11-21T22:08:07.626Z,98948.58
2022-11-21T22:13:15.134Z,98952.25
2022-11-21T22:18:22.792Z,98960.34
2022-11-21T22:23:31.049Z,98961.90
2022-11-21T22:28:38.565Z,98963.98
2022-11-21T22:33:46.844Z,98964.00
2022-11-21T22:38:56.572Z,98961.38
2022-11-21T22:44:03.972Z,98960.16
2022-11-21T22:49:11.471Z,98965.50
2022-11-21T22:54:18.752Z,98966.20
2022-11-21T22:59:26.517Z,98971.73
2022-11-21T23:04:34.190Z,98975.01
2022-11-21T23:09:41.957Z,98982.59
2022-11-21T23:14:49.531Z,98986.59
2022-11-21T23:19:57.127Z,98981.40
2022-11-21T23:25:04.598Z,98984.69
2022-11-21T23:30:14.199Z,98990.39
2022-11-21T23:35:21.652Z,98980.02
2022-11-21T23:40:29.433Z,98973.28
2022-11-21T23:45:37.002Z,98970.52
2022-11-21T23:50:44.325Z,98969.63
2022-11-21T23:55:51.893Z,98964.61
